Warm Springs Summit, Nevada Weather observations

Data are for observation ending at time listed.
 Day   Time    Ave.   Ave.  Ave.  Vector   Max.   Stn.    Total    Solar   Ave.  
  of    of     Air    Rel.  Wind   Wind    Wind   Baro.  Precip.   Rad.    Soil  
Year   Day     Temp.  Hum.  Speed  Dir.    Gust   Pres.                    Temp. 
2016   (PST)    F      %     mph   deg.    mph     mb.     in.     W/m2     F   
------------------------------------------------------------------------------
  36    6:00   24.4    61    8.4    13     10.9   780.9    0.00       0    34.0
  36    6:10   24.3    61    7.8    10     10.4   781.0    0.00       0    34.0
  36    6:20   23.3    61    8.2    12     10.6   781.1    0.00       0    34.0
  36    6:30   22.5    62    8.0    18     11.2   781.0    0.00       1    34.0
  36    6:40   22.3    62    8.1    22     10.6   781.0    0.00       5    34.0
  36    6:50   22.3    62    9.1    25     11.8   781.0    0.00      11    34.0
  36    7:00   22.6    62    8.9    24     11.4   781.1    0.00      26    34.0
  36    7:10   23.0    62    8.3    28     11.7   781.2    0.00      50    34.0
  36    7:20   23.2    62    8.2    28     14.4   781.2    0.00      79    34.0
  36    7:30   23.4    62   10.0    35     14.2   781.3    0.00     111    34.0
  36    7:40   23.8    60    7.9    29     11.9   781.3    0.00     143    34.0
  36    7:50   23.9    60    9.7    31     12.8   781.4    0.00     165    34.0
  36    8:00   24.2    59   10.8    33     16.7   781.4    0.00     196    34.0
  36    8:10   24.1    59    9.8    33     13.2   781.5    0.00     233    34.0
  36    8:20   23.4    62    9.3    36     12.2   781.6    0.00     247    34.0
  36    8:30   23.7    62    9.6    38     12.5   781.6    0.00     274    34.0
  36    8:40   24.2    61    9.5    40     12.7   781.7    0.00     328    34.0
  36    8:50   23.8    62    9.1    40     12.2   781.7    0.00     370    34.0
  36    9:00   23.5    63    9.9    38     13.0   781.7    0.00     387    34.0
  36    9:10   23.5    64    9.7    35     13.0   781.7    0.00     418    34.0
  36    9:20   23.4    65    9.5    32     12.8   781.7    0.00     406    34.0
  36    9:30   23.5    65    8.5    36     11.5   781.7    0.00     455    34.0
  36    9:40   23.8    64    8.5    38     11.4   781.7    0.00     474    34.0
  36    9:50   24.2    63    8.6    30     11.3   781.8    0.00     499    34.0
  36   10:00   24.2    62    9.9    26     11.8   781.8    0.00     519    34.0
  36   10:10   25.2    60   10.4    28     13.5   781.8    0.00     546    34.0
  36   10:20   24.7    62    9.9    29     12.0   781.8    0.00     589    34.0
  36   10:30   24.7    61   10.5    37     13.6   781.7    0.00     578    34.0
  36   10:40   25.1    60   11.3    40     14.9   781.6    0.00     580    34.0
  36   10:50   25.8    58   10.7    40     14.0   781.5    0.00     617    34.0
  36   11:00   25.9    58   10.5    40     12.7   781.6    0.00     643    34.0
  36   11:10   26.1    58    9.5    32     12.3   781.6    0.00     629    34.0
  36   11:20   26.2    58    8.7    39     10.7   781.5    0.00     670    34.0
  36   11:30   26.1    60    8.7    37     10.8   781.5    0.00     658    34.0
  36   11:40   26.2    60    9.8    36     11.9   781.4    0.00     660    34.0
  36   11:50   27.8    57   10.8    37     13.7   781.2    0.00     670    34.0
  36   12:00   27.9    57   10.5    34     12.8   781.1    0.00     676    34.0
  36   12:10   28.5    56    7.8    20     10.3   781.1    0.00     654    34.0
  36   12:20   29.8    54    6.9    13      8.2   781.2    0.00     660    34.0
  36   12:30   31.2    52    5.9    26      8.0   781.2    0.00     655    34.0
  36   12:40   33.7    47    3.7    26      5.4   781.2    0.00     652    34.0
  36   12:50   34.5    44    4.0    24      5.4   781.2    0.00     641    34.0
  36   13:00   35.3    41    3.7    18      5.2   781.2    0.00     634    34.0
  36   13:10   35.2    40    3.9    17      5.4   781.1    0.00     624    34.0
  36   13:20   36.2    38    3.5    10      5.3   781.1    0.00     614    34.0
  36   13:30   35.6    38    4.5     5      6.0   781.1    0.00     597    34.0
  36   13:40   35.1    38    5.2    18      6.5   781.0    0.00     580    34.0
  36   13:50   34.3    39    5.9    20      7.1   781.0    0.00     562    34.0
  36   14:00   34.1    40    5.8    18      7.3   781.0    0.00     541    34.0
  36   14:10   34.9    39    4.7     8      6.0   781.0    0.00     518    34.0
  36   14:20   35.8    36    4.2    10      5.7   780.9    0.00     493    34.0
  36   14:30   36.5    34    3.8    14      4.8   780.9    0.00     476    34.0
  36   14:40   36.8    33    3.4    16      4.2   780.9    0.00     422    34.0
  36   14:50   37.1    32    3.2    28      3.8   780.9    0.00     422    34.0
  36   15:00   36.4    34    3.1    17      4.3   780.9    0.00     380    34.0
  36   15:10   39.9    31    0.8    18      2.4   781.0    0.00     345    34.0
  36   15:20   41.9    29    1.1    14      3.2   781.0    0.00     288    34.0
  36   15:30   35.1    38    3.5    25      4.2   781.0    0.00     288    34.0
  36   15:40   33.3    42    4.0    20      5.2   781.0    0.00     250    34.0
  36   15:50   32.5    43    4.0    14      4.9   780.9    0.00     228    34.0
  36   16:00   32.3    44    3.7     6      4.6   781.0    0.00     207    34.0
  36   16:10   34.8    38    2.7   332      4.6   781.0    0.00     159    34.0
  36   16:20   35.8    38    4.6   300      5.0   781.1    0.00     144    34.0
  36   16:30   35.5    38    4.2   296      4.9   781.1    0.00     103    34.0
  36   16:40   35.4    34    4.2   300      5.0   781.2    0.00      61    34.0
  36   16:50   34.8    34    4.6   304      5.1   781.2    0.00      31    34.0
  36   17:00   34.1    33    4.6   293      5.1   781.2    0.00      13    34.0
  36   17:10   33.7    34    3.6   298      4.5   781.1    0.00       5    34.0
  36   17:20   33.2    34    4.7   303      5.3   781.1    0.00       1    34.0
  36   17:30   33.3    32    3.5   314      4.6   781.1    0.00       0    34.0
  36   17:40   33.2    32    4.0   310      5.0   781.1    0.00       0    34.0
  36   17:50   33.3    31    3.6   324      4.2   781.1    0.00       0    34.0
  36   18:00   32.9    32    3.9   344      5.2   781.1    0.00       0    34.0
  36   18:10   32.2    38    3.7    28      5.4   781.1    0.00       0    34.0
  36   18:20   29.4    51    5.0    36      6.4   781.0    0.00       0    34.0
  36   18:30   27.0    58    6.6    38      7.8   781.0    0.00       0    34.0
  36   18:40   26.3    60    6.7    36      8.2   781.0    0.00       0    34.0
  36   18:50   27.3    56    4.3    28      6.8   781.0    0.00       0    34.0
  36   19:00   29.5    50    3.4    42      4.3   781.1    0.00       0    34.0
  36   19:10   30.2    47    4.1    59      5.5   781.1    0.00       0    34.0
  36   19:20   29.2    50    5.5    35      6.5   781.0    0.00       0    34.0
  36   19:30   27.9    54    6.3    30      6.9   780.9    0.00       0    34.0
  36   19:40   27.6    55    6.4    25      6.8   780.9    0.00       0    34.0
  36   19:50   27.8    54    5.3    18      5.8   780.9    0.00       0    34.0
  36   20:00   27.6    54    4.6    14      5.4   780.9    0.00       0    34.0
  36   20:10   28.1    51    2.7    24      4.6   780.9    0.00       0    34.0
  36   20:20   29.9    44    0.4    33      2.0   781.0    0.00       0    34.0
  36   20:30   31.4    38    2.1   234      3.3   781.2    0.00       0    34.0
  36   20:40   31.5    39    0.6   220      2.4   781.2    0.00       0    34.0
  36   20:50   30.8    40    0.7    44      2.4   781.2    0.00       0    34.0
  36   21:00   30.9    40    0.8   290      3.2   781.2    0.00       0    34.0
  36   21:10   32.6    36    4.1   279      5.2   781.3    0.00       0    34.0
  36   21:20   33.0    35    5.2   292      6.3   781.3    0.00       0    34.0
  36   21:30   33.1    36    4.2   289      5.7   781.3    0.00       0    34.0
  36   21:40   33.1    36    2.0   275      3.8   781.3    0.00       0    34.0
  36   21:50   31.6    38    2.8    80      3.7   781.3    0.00       0    34.0
  36   22:00   31.2    39    2.6    92      3.3   781.3    0.00       0    34.0
  36   22:10   30.7    40    1.6   107      2.8   781.3    0.00       0    34.0
  36   22:20   32.1    39    3.6   259      5.1   781.3    0.00       0    34.0
  36   22:30   31.9    38    2.7   121      6.4   781.3    0.00       0    34.0
  36   22:40   30.3    41    6.0   107      7.3   781.2    0.00       0    34.0
  36   22:50   30.3    41    4.3   104      6.4   781.3    0.00       0    34.0
  36   23:00   31.0    40    2.4   191      6.3   781.4    0.00       0    34.0
  36   23:10   31.9    40    6.1   266      7.7   781.4    0.00       0    34.0
  36   23:20   31.7    40    4.4   253      5.4   781.4    0.00       0    34.0
  36   23:30   32.4    38    5.9   262      6.7   781.5    0.00       0    34.0
  36   23:40   32.7    38    5.4   254      6.7   781.4    0.00       0    34.0
  36   23:50   32.7    37    5.2   269      5.6   781.4    0.00       0    34.0
  37    0:00   32.8    37    6.5   274      7.6   781.4    0.00       0    34.0
  37    0:10   32.4    39    8.1   276      9.2   781.3    0.00       0    34.0
  37    0:20   32.2    40    8.2   274      9.2   781.3    0.00       0    34.0
  37    0:30   32.0    40    9.6   269     10.8   781.3    0.00       0    34.0
  37    0:40   31.8    41   10.0   274     11.0   781.3    0.00       0    34.0
  37    0:50   31.4    42   10.0   285     11.2   781.2    0.00       0    34.0
  37    1:00   31.4    41   10.5   287     12.1   781.1    0.00       0    34.0
  37    1:10   31.4    41   12.4   291     13.6   781.1    0.00       0    34.0
  37    1:20   30.8    42   13.9   289     14.8   781.2    0.00       0    34.0
  37    1:30   31.1    40   12.5   290     13.8   781.2    0.00       0    34.0
  37    1:40   31.7    36    9.4   288     11.5   781.1    0.00       0    34.0
  37    1:50   31.5    37   10.5   293     12.2   781.1    0.00       0    34.0
  37    2:00   31.1    39   12.2   292     13.8   781.1    0.00       0    34.0
  37    2:10   31.2    37   12.4   286     13.7   781.1    0.00       0    34.0
  37    2:20   30.5    40   13.3   290     14.1   781.1    0.00       0    34.0
  37    2:30   30.6    40   14.5   290     15.8   781.1    0.00       0    34.0
  37    2:40   30.7    39   13.3   285     15.5   781.0    0.00       0    34.0
  37    2:50   31.2    37   10.4   286     13.0   780.9    0.00       0    34.0
  37    3:00   31.6    36   10.8   285     13.3   780.9    0.00       0    34.0
  37    3:10   31.9    36   10.8   275     12.3   780.8    0.00       0    34.0
  37    3:20   32.3    36   10.2   273     11.4   780.8    0.00       0    34.0
  37    3:30   32.5    36    7.6   260      9.9   780.7    0.00       0    34.0
  37    3:40   32.2    36    8.0   261      9.3   780.6    0.00       0    34.0
  37    3:50   32.0    36    6.9   266      8.3   780.5    0.00       0    34.0
  37    4:00   32.4    37    5.2   275      6.8   780.4    0.00       0    34.0
  37    4:10   32.6    36    3.3   252      3.8   780.3    0.00       0    34.0
  37    4:20   31.9    36    1.8   124      4.7   780.4    0.00       0    34.0
  37    4:30   32.4    36    4.3   276      6.3   780.5    0.00       0    34.0
  37    4:40   32.6    36    5.9   284      6.6   780.5    0.00       0    34.0
  37    4:50   32.5    36    6.5   290      7.3   780.5    0.00       0    34.0
  37    5:00   32.3    36    4.5   299      5.7   780.5    0.00       0    34.0
  37    5:10   32.3    36    4.7   284      5.9   780.5    0.00       0    34.0
  37    5:20   32.1    36    4.1   299      5.2   780.5    0.00       0    34.0
  37    5:30   32.1    36    4.3   297      5.0   780.5    0.00       0    34.0
  37    5:40   32.5    33    2.6   340      3.9   780.5    0.00       0    34.0
  37    5:50   32.6    33    2.8     5      4.7   780.6    0.00       0    34.0

Return to Warm Springs Summit, Nevada graphs page.


Western Regional Climate Center,wrcc@dri.edu